sensor_id;sensor_type;location;lat;lon;timestamp;pressure;altitude;pressure_sealevel;temperature;humidity
9521;BME280;4798;41.574;23.734;2022-09-09T00:01:23;95642.22;;;20.15;100.00
9521;BME280;4798;41.574;23.734;2022-09-09T00:04:03;95650.66;;;19.96;100.00
9521;BME280;4798;41.574;23.734;2022-09-09T00:06:43;95652.38;;;20.09;100.00
9521;BME280;4798;41.574;23.734;2022-09-09T00:09:16;95618.97;;;20.10;100.00
9521;BME280;4798;41.574;23.734;2022-09-09T00:11:48;95643.22;;;20.02;100.00
9521;BME280;4798;41.574;23.734;2022-09-09T00:14:25;95636.25;;;20.01;100.00
9521;BME280;4798;41.574;23.734;2022-09-09T00:17:01;95632.72;;;20.17;100.00
9521;BME280;4798;41.574;23.734;2022-09-09T00:19:32;95637.13;;;20.31;100.00
9521;BME280;4798;41.574;23.734;2022-09-09T00:22:15;95651.03;;;20.41;100.00
9521;BME280;4798;41.574;23.734;2022-09-09T00:24:46;95649.28;;;20.37;100.00
9521;BME280;4798;41.574;23.734;2022-09-09T00:27:24;95644.75;;;20.29;100.00
9521;BME280;4798;41.574;23.734;2022-09-09T00:29:59;95647.44;;;20.20;100.00
9521;BME280;4798;41.574;23.734;2022-09-09T00:32:30;95626.88;;;20.07;100.00
9521;BME280;4798;41.574;23.734;2022-09-09T00:35:13;95634.00;;;20.11;100.00
9521;BME280;4798;41.574;23.734;2022-09-09T00:37:46;95636.00;;;19.59;100.00
9521;BME280;4798;41.574;23.734;2022-09-09T00:40:32;95646.72;;;19.85;100.00
9521;BME280;4798;41.574;23.734;2022-09-09T00:43:15;95642.94;;;19.69;100.00
9521;BME280;4798;41.574;23.734;2022-09-09T00:49:02;95652.25;;;19.89;100.00
9521;BME280;4798;41.574;23.734;2022-09-09T00:51:39;95654.13;;;20.05;100.00
9521;BME280;4798;41.574;23.734;2022-09-09T00:54:35;95650.41;;;19.72;100.00
9521;BME280;4798;41.574;23.734;2022-09-09T00:57:23;95653.69;;;19.95;100.00
9521;BME280;4798;41.574;23.734;2022-09-09T01:00:14;95654.78;;;19.94;100.00
9521;BME280;4798;41.574;23.734;2022-09-09T01:02:52;95649.59;;;19.80;100.00
9521;BME280;4798;41.574;23.734;2022-09-09T01:05:33;95646.88;;;19.89;100.00
9521;BME280;4798;41.574;23.734;2022-09-09T01:08:11;95631.41;;;19.34;100.00
9521;BME280;4798;41.574;23.734;2022-09-09T01:10:49;95652.28;;;19.29;100.00
9521;BME280;4798;41.574;23.734;2022-09-09T01:13:24;95592.19;;;18.99;100.00
9521;BME280;4798;41.574;23.734;2022-09-09T01:15:53;95661.50;;;19.45;100.00
9521;BME280;4798;41.574;23.734;2022-09-09T01:18:30;95603.13;;;19.20;100.00
9521;BME280;4798;41.574;23.734;2022-09-09T01:21:06;95655.94;;;19.50;100.00
9521;BME280;4798;41.574;23.734;2022-09-09T01:23:52;95657.53;;;19.68;100.00
9521;BME280;4798;41.574;23.734;2022-09-09T01:26:32;95640.25;;;19.69;100.00
9521;BME280;4798;41.574;23.734;2022-09-09T01:29:02;95653.56;;;19.57;100.00
9521;BME280;4798;41.574;23.734;2022-09-09T01:31:33;95659.38;;;19.33;100.00
9521;BME280;4798;41.574;23.734;2022-09-09T01:34:10;95656.88;;;19.54;100.00
9521;BME280;4798;41.574;23.734;2022-09-09T01:36:43;95641.06;;;19.70;100.00
9521;BME280;4798;41.574;23.734;2022-09-09T01:39:14;95641.06;;;19.78;100.00
9521;BME280;4798;41.574;23.734;2022-09-09T01:41:43;95628.41;;;19.61;100.00
9521;BME280;4798;41.574;23.734;2022-09-09T01:44:12;95635.97;;;19.77;100.00
9521;BME280;4798;41.574;23.734;2022-09-09T01:46:40;95647.38;;;19.74;100.00
9521;BME280;4798;41.574;23.734;2022-09-09T01:49:09;95641.56;;;19.63;100.00
9521;BME280;4798;41.574;23.734;2022-09-09T01:51:39;95649.47;;;19.68;100.00
9521;BME280;4798;41.574;23.734;2022-09-09T01:54:09;95650.56;;;19.58;100.00
9521;BME280;4798;41.574;23.734;2022-09-09T01:56:47;95565.97;;;19.39;100.00
9521;BME280;4798;41.574;23.734;2022-09-09T01:59:28;95637.72;;;19.81;100.00
9521;BME280;4798;41.574;23.734;2022-09-09T02:02:09;95640.91;;;19.75;100.00
9521;BME280;4798;41.574;23.734;2022-09-09T02:04:40;95635.06;;;19.64;100.00
9521;BME280;4798;41.574;23.734;2022-09-09T02:07:19;95572.59;;;19.16;100.00
9521;BME280;4798;41.574;23.734;2022-09-09T02:09:57;95645.50;;;19.57;100.00
9521;BME280;4798;41.574;23.734;2022-09-09T02:12:29;95638.38;;;19.44;100.00
9521;BME280;4798;41.574;23.734;2022-09-09T02:15:03;95639.31;;;19.31;100.00
9521;BME280;4798;41.574;23.734;2022-09-09T02:17:36;95638.09;;;19.45;100.00
9521;BME280;4798;41.574;23.734;2022-09-09T02:20:08;95648.09;;;18.71;100.00
9521;BME280;4798;41.574;23.734;2022-09-09T02:22:40;95645.81;;;18.56;100.00
9521;BME280;4798;41.574;23.734;2022-09-09T02:25:13;95651.78;;;19.10;100.00
9521;BME280;4798;41.574;23.734;2022-09-09T02:27:46;95649.72;;;18.89;100.00
9521;BME280;4798;41.574;23.734;2022-09-09T02:30:16;95648.38;;;18.61;100.00
9521;BME280;4798;41.574;23.734;2022-09-09T02:32:45;95651.88;;;18.87;100.00
9521;BME280;4798;41.574;23.734;2022-09-09T02:35:17;95636.75;;;18.91;100.00
9521;BME280;4798;41.574;23.734;2022-09-09T02:37:47;95654.31;;;19.06;100.00
9521;BME280;4798;41.574;23.734;2022-09-09T02:40:17;95645.97;;;18.60;100.00
9521;BME280;4798;41.574;23.734;2022-09-09T02:42:48;95655.84;;;18.42;100.00
9521;BME280;4798;41.574;23.734;2022-09-09T02:45:19;95656.28;;;18.66;100.00
9521;BME280;4798;41.574;23.734;2022-09-09T02:47:50;95650.19;;;19.00;100.00
9521;BME280;4798;41.574;23.734;2022-09-09T02:50:25;95642.47;;;19.24;100.00
9521;BME280;4798;41.574;23.734;2022-09-09T02:53:06;95648.38;;;18.61;100.00
9521;BME280;4798;41.574;23.734;2022-09-09T02:55:39;95646.34;;;18.75;100.00
9521;BME280;4798;41.574;23.734;2022-09-09T02:58:14;95630.69;;;18.77;100.00
9521;BME280;4798;41.574;23.734;2022-09-09T03:00:45;95637.84;;;18.90;100.00
9521;BME280;4798;41.574;23.734;2022-09-09T03:03:14;95635.00;;;18.95;100.00
9521;BME280;4798;41.574;23.734;2022-09-09T03:05:44;95580.63;;;18.64;100.00
9521;BME280;4798;41.574;23.734;2022-09-09T03:08:13;95644.69;;;19.14;100.00
9521;BME280;4798;41.574;23.734;2022-09-09T03:10:42;95648.31;;;19.26;100.00
9521;BME280;4798;41.574;23.734;2022-09-09T03:13:11;95637.56;;;19.18;100.00
9521;BME280;4798;41.574;23.734;2022-09-09T03:15:42;95645.97;;;19.25;100.00
9521;BME280;4798;41.574;23.734;2022-09-09T03:18:10;95635.53;;;19.32;100.00
9521;BME280;4798;41.574;23.734;2022-09-09T03:20:40;95620.97;;;19.16;100.00
9521;BME280;4798;41.574;23.734;2022-09-09T03:23:09;95628.72;;;19.17;100.00
9521;BME280;4798;41.574;23.734;2022-09-09T03:25:46;95638.00;;;19.02;100.00
9521;BME280;4798;41.574;23.734;2022-09-09T03:28:16;95647.69;;;19.21;100.00
9521;BME280;4798;41.574;23.734;2022-09-09T03:30:44;95641.69;;;19.24;100.00
9521;BME280;4798;41.574;23.734;2022-09-09T03:33:13;95646.72;;;19.17;100.00
9521;BME280;4798;41.574;23.734;2022-09-09T03:35:45;95632.69;;;19.20;100.00
9521;BME280;4798;41.574;23.734;2022-09-09T03:38:15;95632.69;;;19.20;100.00
9521;BME280;4798;41.574;23.734;2022-09-09T03:40:49;95636.63;;;19.14;100.00
9521;BME280;4798;41.574;23.734;2022-09-09T03:43:19;95641.38;;;19.17;100.00
9521;BME280;4798;41.574;23.734;2022-09-09T03:45:48;95632.63;;;19.02;100.00
9521;BME280;4798;41.574;23.734;2022-09-09T03:48:17;95636.91;;;19.03;100.00
9521;BME280;4798;41.574;23.734;2022-09-09T03:50:45;95639.78;;;19.16;100.00
9521;BME280;4798;41.574;23.734;2022-09-09T03:53:14;95636.16;;;19.12;100.00
9521;BME280;4798;41.574;23.734;2022-09-09T03:55:44;95628.88;;;18.47;100.00
9521;BME280;4798;41.574;23.734;2022-09-09T03:58:13;95649.16;;;18.62;100.00
9521;BME280;4798;41.574;23.734;2022-09-09T04:00:43;95643.19;;;18.73;100.00
9521;BME280;4798;41.574;23.734;2022-09-09T04:03:12;95641.97;;;19.05;100.00
9521;BME280;4798;41.574;23.734;2022-09-09T04:05:40;95642.63;;;19.02;100.00
9521;BME280;4798;41.574;23.734;2022-09-09T04:08:09;95640.84;;;18.97;100.00
9521;BME280;4798;41.574;23.734;2022-09-09T04:10:38;95651.91;;;18.96;100.00
9521;BME280;4798;41.574;23.734;2022-09-09T04:13:06;95650.50;;;18.98;100.00
9521;BME280;4798;41.574;23.734;2022-09-09T04:15:34;95643.06;;;19.13;100.00
9521;BME280;4798;41.574;23.734;2022-09-09T04:18:04;95648.44;;;18.95;100.00
9521;BME280;4798;41.574;23.734;2022-09-09T04:20:33;95657.47;;;19.25;100.00
9521;BME280;4798;41.574;23.734;2022-09-09T04:23:02;95659.78;;;18.75;100.00
9521;BME280;4798;41.574;23.734;2022-09-09T04:25:30;95657.13;;;18.92;100.00
9521;BME280;4798;41.574;23.734;2022-09-09T04:27:59;95657.94;;;19.01;100.00
9521;BME280;4798;41.574;23.734;2022-09-09T04:30:27;95658.00;;;18.62;100.00
9521;BME280;4798;41.574;23.734;2022-09-09T04:32:56;95660.94;;;18.91;100.00
9521;BME280;4798;41.574;23.734;2022-09-09T04:35:26;95662.78;;;18.82;100.00
9521;BME280;4798;41.574;23.734;2022-09-09T04:37:55;95660.31;;;18.94;100.00
9521;BME280;4798;41.574;23.734;2022-09-09T04:40:23;95668.53;;;19.15;100.00
9521;BME280;4798;41.574;23.734;2022-09-09T04:42:51;95660.47;;;19.07;100.00
9521;BME280;4798;41.574;23.734;2022-09-09T04:45:20;95661.59;;;19.14;100.00
9521;BME280;4798;41.574;23.734;2022-09-09T04:47:48;95667.41;;;19.08;100.00
9521;BME280;4798;41.574;23.734;2022-09-09T04:50:16;95674.50;;;18.86;100.00
9521;BME280;4798;41.574;23.734;2022-09-09T04:52:46;95680.81;;;18.82;100.00
9521;BME280;4798;41.574;23.734;2022-09-09T04:55:15;95669.66;;;19.31;100.00
9521;BME280;4798;41.574;23.734;2022-09-09T04:57:43;95666.84;;;19.62;100.00
9521;BME280;4798;41.574;23.734;2022-09-09T05:00:13;95662.56;;;19.70;100.00
9521;BME280;4798;41.574;23.734;2022-09-09T05:02:41;95662.09;;;19.76;100.00
9521;BME280;4798;41.574;23.734;2022-09-09T05:05:10;95665.25;;;19.35;100.00
9521;BME280;4798;41.574;23.734;2022-09-09T05:07:38;95664.47;;;19.35;100.00
9521;BME280;4798;41.574;23.734;2022-09-09T05:10:09;95646.28;;;19.15;100.00
9521;BME280;4798;41.574;23.734;2022-09-09T05:12:37;95652.09;;;18.99;100.00
9521;BME280;4798;41.574;23.734;2022-09-09T05:15:06;95647.69;;;19.12;100.00
9521;BME280;4798;41.574;23.734;2022-09-09T05:17:35;95650.47;;;18.90;100.00
9521;BME280;4798;41.574;23.734;2022-09-09T05:20:04;95579.13;;;18.41;100.00
9521;BME280;4798;41.574;23.734;2022-09-09T05:22:36;95655.81;;;18.73;100.00
9521;BME280;4798;41.574;23.734;2022-09-09T05:25:05;95662.13;;;18.29;100.00
9521;BME280;4798;41.574;23.734;2022-09-09T05:27:36;95661.75;;;18.22;100.00
9521;BME280;4798;41.574;23.734;2022-09-09T05:30:05;95665.06;;;18.19;100.00
9521;BME280;4798;41.574;23.734;2022-09-09T05:32:33;95648.13;;;18.10;100.00
9521;BME280;4798;41.574;23.734;2022-09-09T05:35:02;95657.56;;;18.38;100.00
9521;BME280;4798;41.574;23.734;2022-09-09T05:37:31;95678.97;;;17.99;100.00
9521;BME280;4798;41.574;23.734;2022-09-09T05:39:59;95673.84;;;18.11;100.00
9521;BME280;4798;41.574;23.734;2022-09-09T05:42:30;95667.25;;;18.17;100.00
9521;BME280;4798;41.574;23.734;2022-09-09T05:45:00;95669.84;;;18.30;100.00
9521;BME280;4798;41.574;23.734;2022-09-09T05:47:29;95666.31;;;18.52;100.00
9521;BME280;4798;41.574;23.734;2022-09-09T05:49:57;95674.78;;;18.76;100.00
9521;BME280;4798;41.574;23.734;2022-09-09T05:52:25;95666.41;;;18.78;100.00
9521;BME280;4798;41.574;23.734;2022-09-09T05:54:54;95670.25;;;19.02;100.00
9521;BME280;4798;41.574;23.734;2022-09-09T05:57:23;95670.31;;;19.71;100.00
9521;BME280;4798;41.574;23.734;2022-09-09T05:59:52;95663.97;;;19.24;100.00
9521;BME280;4798;41.574;23.734;2022-09-09T06:02:21;95651.03;;;19.35;100.00
9521;BME280;4798;41.574;23.734;2022-09-09T06:04:50;95586.84;;;19.25;100.00
9521;BME280;4798;41.574;23.734;2022-09-09T06:07:18;95632.50;;;20.40;100.00
9521;BME280;4798;41.574;23.734;2022-09-09T06:09:47;95534.72;;;20.18;100.00
9521;BME280;4798;41.574;23.734;2022-09-09T06:12:15;95634.16;;;21.20;100.00
9521;BME280;4798;41.574;23.734;2022-09-09T06:14:43;95628.06;;;21.43;100.00
9521;BME280;4798;41.574;23.734;2022-09-09T06:17:12;95621.13;;;21.96;100.00
9521;BME280;4798;41.574;23.734;2022-09-09T06:19:42;95630.50;;;22.10;100.00
9521;BME280;4798;41.574;23.734;2022-09-09T06:22:10;95633.13;;;22.31;100.00
9521;BME280;4798;41.574;23.734;2022-09-09T06:24:39;95645.16;;;21.89;100.00
9521;BME280;4798;41.574;23.734;2022-09-09T06:27:07;95640.84;;;22.08;100.00
9521;BME280;4798;41.574;23.734;2022-09-09T06:29:36;95643.34;;;21.60;100.00
9521;BME280;4798;41.574;23.734;2022-09-09T06:32:04;95638.25;;;22.24;100.00
9521;BME280;4798;41.574;23.734;2022-09-09T06:34:35;95647.75;;;23.39;100.00
9521;BME280;4798;41.574;23.734;2022-09-09T06:37:05;95639.94;;;24.05;100.00
9521;BME280;4798;41.574;23.734;2022-09-09T06:39:33;95645.91;;;24.11;100.00
9521;BME280;4798;41.574;23.734;2022-09-09T06:42:01;95638.34;;;24.63;100.00
9521;BME280;4798;41.574;23.734;2022-09-09T06:44:30;95639.66;;;24.38;100.00
9521;BME280;4798;41.574;23.734;2022-09-09T06:47:01;95644.81;;;24.58;100.00
9521;BME280;4798;41.574;23.734;2022-09-09T06:49:30;95634.00;;;25.44;93.23
9521;BME280;4798;41.574;23.734;2022-09-09T06:51:58;95641.63;;;25.19;95.43
9521;BME280;4798;41.574;23.734;2022-09-09T06:54:28;95638.00;;;24.80;97.06
9521;BME280;4798;41.574;23.734;2022-09-09T06:56:56;95636.19;;;25.19;100.00
9521;BME280;4798;41.574;23.734;2022-09-09T06:59:30;95627.31;;;25.03;98.24
9521;BME280;4798;41.574;23.734;2022-09-09T07:01:58;95629.78;;;25.27;90.00
9521;BME280;4798;41.574;23.734;2022-09-09T07:04:28;95629.91;;;25.50;92.27
9521;BME280;4798;41.574;23.734;2022-09-09T07:06:56;95635.88;;;26.16;87.13
9521;BME280;4798;41.574;23.734;2022-09-09T07:09:25;95617.81;;;26.95;79.55
9521;BME280;4798;41.574;23.734;2022-09-09T07:11:55;95620.03;;;25.99;82.48
9521;BME280;4798;41.574;23.734;2022-09-09T07:14:25;95619.06;;;25.88;84.01
9521;BME280;4798;41.574;23.734;2022-09-09T07:16:53;95623.47;;;26.15;86.57
9521;BME280;4798;41.574;23.734;2022-09-09T07:19:25;95628.19;;;26.86;79.58
9521;BME280;4798;41.574;23.734;2022-09-09T07:21:54;95617.88;;;27.88;70.67
9521;BME280;4798;41.574;23.734;2022-09-09T07:24:22;95617.75;;;28.07;69.74
9521;BME280;4798;41.574;23.734;2022-09-09T07:26:50;95623.31;;;28.18;66.05
9521;BME280;4798;41.574;23.734;2022-09-09T07:29:20;95622.16;;;27.86;66.75
9521;BME280;4798;41.574;23.734;2022-09-09T07:31:48;95619.69;;;28.44;65.47
9521;BME280;4798;41.574;23.734;2022-09-09T07:34:17;95627.53;;;28.52;62.59
9521;BME280;4798;41.574;23.734;2022-09-09T07:36:45;95628.44;;;27.90;65.60
9521;BME280;4798;41.574;23.734;2022-09-09T07:39:14;95617.38;;;27.46;70.84
9521;BME280;4798;41.574;23.734;2022-09-09T07:41:46;95619.94;;;28.72;62.88
9521;BME280;4798;41.574;23.734;2022-09-09T07:44:16;95624.66;;;28.34;61.65
9521;BME280;4798;41.574;23.734;2022-09-09T07:46:46;95620.19;;;27.83;64.69
9521;BME280;4798;41.574;23.734;2022-09-09T07:49:15;95617.41;;;27.79;63.15
9521;BME280;4798;41.574;23.734;2022-09-09T07:51:52;95607.44;;;28.67;64.73
9521;BME280;4798;41.574;23.734;2022-09-09T07:54:21;95555.25;;;28.25;57.84
9521;BME280;4798;41.574;23.734;2022-09-09T07:56:51;95616.56;;;29.50;59.72
9521;BME280;4798;41.574;23.734;2022-09-09T07:59:20;95619.97;;;30.16;53.76
9521;BME280;4798;41.574;23.734;2022-09-09T08:01:51;95608.88;;;29.70;55.38
9521;BME280;4798;41.574;23.734;2022-09-09T08:04:23;95612.50;;;29.95;51.91
9521;BME280;4798;41.574;23.734;2022-09-09T08:06:53;95594.25;;;30.59;53.61
9521;BME280;4798;41.574;23.734;2022-09-09T08:09:22;95527.81;;;30.69;49.22
9521;BME280;4798;41.574;23.734;2022-09-09T08:11:54;95598.09;;;30.34;50.39
9521;BME280;4798;41.574;23.734;2022-09-09T08:14:23;95553.97;;;30.28;47.38
9521;BME280;4798;41.574;23.734;2022-09-09T08:16:53;95584.56;;;32.05;46.33
9521;BME280;4798;41.574;23.734;2022-09-09T08:19:21;95593.97;;;32.04;44.04
9521;BME280;4798;41.574;23.734;2022-09-09T08:21:50;95588.06;;;32.68;42.32
9521;BME280;4798;41.574;23.734;2022-09-09T08:24:18;95591.03;;;31.53;44.05
9521;BME280;4798;41.574;23.734;2022-09-09T08:26:47;95582.28;;;31.86;44.26
9521;BME280;4798;41.574;23.734;2022-09-09T08:29:17;95586.16;;;31.99;45.37
9521;BME280;4798;41.574;23.734;2022-09-09T08:31:46;95569.72;;;31.99;44.54
9521;BME280;4798;41.574;23.734;2022-09-09T08:34:17;95564.66;;;32.52;45.26
9521;BME280;4798;41.574;23.734;2022-09-09T08:36:48;95563.44;;;32.57;43.70
9521;BME280;4798;41.574;23.734;2022-09-09T08:39:18;95564.66;;;32.56;43.27
9521;BME280;4798;41.574;23.734;2022-09-09T08:42:08;95563.75;;;33.14;42.61
9521;BME280;4798;41.574;23.734;2022-09-09T08:44:50;95568.72;;;32.82;44.45
9521;BME280;4798;41.574;23.734;2022-09-09T08:47:33;95563.53;;;31.77;45.54
9521;BME280;4798;41.574;23.734;2022-09-09T08:50:16;95563.81;;;31.97;47.37
9521;BME280;4798;41.574;23.734;2022-09-09T08:52:52;95555.25;;;32.98;42.78
9521;BME280;4798;41.574;23.734;2022-09-09T08:55:26;95561.66;;;33.25;40.38
9521;BME280;4798;41.574;23.734;2022-09-09T08:57:57;95558.97;;;32.26;42.33
9521;BME280;4798;41.574;23.734;2022-09-09T09:00:33;95558.44;;;32.41;41.75
9521;BME280;4798;41.574;23.734;2022-09-09T09:03:10;95549.28;;;32.66;40.31
9521;BME280;4798;41.574;23.734;2022-09-09T09:05:47;95548.78;;;32.74;40.06
9521;BME280;4798;41.574;23.734;2022-09-09T09:08:25;95545.00;;;33.02;40.82
9521;BME280;4798;41.574;23.734;2022-09-09T09:10:57;95550.81;;;33.11;40.22
9521;BME280;4798;41.574;23.734;2022-09-09T09:13:32;95539.66;;;33.93;39.23
9521;BME280;4798;41.574;23.734;2022-09-09T09:16:16;95553.66;;;34.02;39.73
9521;BME280;4798;41.574;23.734;2022-09-09T09:18:47;95534.44;;;33.71;40.26
9521;BME280;4798;41.574;23.734;2022-09-09T09:21:23;95543.91;;;32.48;43.19
9521;BME280;4798;41.574;23.734;2022-09-09T09:23:57;95534.19;;;32.84;45.15
9521;BME280;4798;41.574;23.734;2022-09-09T09:26:30;95535.84;;;32.75;44.56
9521;BME280;4798;41.574;23.734;2022-09-09T09:29:07;95532.19;;;33.29;42.44
9521;BME280;4798;41.574;23.734;2022-09-09T09:31:36;95527.88;;;34.19;41.00
9521;BME280;4798;41.574;23.734;2022-09-09T09:34:04;95526.50;;;35.03;39.40
9521;BME280;4798;41.574;23.734;2022-09-09T09:36:39;95537.00;;;34.39;40.05
9521;BME280;4798;41.574;23.734;2022-09-09T09:39:08;95527.81;;;32.53;45.13
9521;BME280;4798;41.574;23.734;2022-09-09T09:41:56;95460.09;;;31.05;49.05
9521;BME280;4798;41.574;23.734;2022-09-09T09:44:33;95507.56;;;31.68;49.51
9521;BME280;4798;41.574;23.734;2022-09-09T09:47:08;95461.66;;;31.03;50.73
9521;BME280;4798;41.574;23.734;2022-09-09T09:49:37;95497.66;;;31.88;49.53
9521;BME280;4798;41.574;23.734;2022-09-09T09:52:17;95501.84;;;31.34;50.79
9521;BME280;4798;41.574;23.734;2022-09-09T09:54:49;95486.25;;;31.24;53.29
9521;BME280;4798;41.574;23.734;2022-09-09T09:57:23;95503.44;;;31.31;53.93
9521;BME280;4798;41.574;23.734;2022-09-09T10:00:02;95487.69;;;31.53;52.75
9521;BME280;4798;41.574;23.734;2022-09-09T10:02:38;95501.72;;;31.66;51.17
9521;BME280;4798;41.574;23.734;2022-09-09T10:05:14;95497.81;;;31.67;50.60
9521;BME280;4798;41.574;23.734;2022-09-09T10:07:45;95506.09;;;32.22;49.83
9521;BME280;4798;41.574;23.734;2022-09-09T10:10:19;95509.16;;;31.65;51.36
9521;BME280;4798;41.574;23.734;2022-09-09T10:12:57;95499.13;;;31.34;53.67
9521;BME280;4798;41.574;23.734;2022-09-09T10:15:37;95506.53;;;31.30;54.16
9521;BME280;4798;41.574;23.734;2022-09-09T10:18:22;95506.50;;;31.48;52.35
9521;BME280;4798;41.574;23.734;2022-09-09T10:20:58;95493.75;;;31.89;50.39
9521;BME280;4798;41.574;23.734;2022-09-09T10:24:05;95498.28;;;31.40;51.89
9521;BME280;4798;41.574;23.734;2022-09-09T10:26:41;95492.00;;;32.16;50.75
9521;BME280;4798;41.574;23.734;2022-09-09T10:29:28;95485.13;;;32.45;53.16
9521;BME280;4798;41.574;23.734;2022-09-09T10:32:09;95480.50;;;33.17;48.39
9521;BME280;4798;41.574;23.734;2022-09-09T10:34:55;95479.03;;;34.26;43.85
9521;BME280;4798;41.574;23.734;2022-09-09T10:37:35;95473.00;;;33.81;43.10
9521;BME280;4798;41.574;23.734;2022-09-09T10:40:19;95464.47;;;33.42;44.67
9521;BME280;4798;41.574;23.734;2022-09-09T10:42:53;95474.75;;;33.38;44.43
9521;BME280;4798;41.574;23.734;2022-09-09T10:45:30;95467.94;;;34.07;43.18
9521;BME280;4798;41.574;23.734;2022-09-09T10:48:19;95468.34;;;34.55;41.97
9521;BME280;4798;41.574;23.734;2022-09-09T10:51:00;95466.38;;;35.38;40.99
9521;BME280;4798;41.574;23.734;2022-09-09T10:53:44;95469.88;;;34.79;39.01
9521;BME280;4798;41.574;23.734;2022-09-09T10:56:18;95459.47;;;35.10;40.36
9521;BME280;4798;41.574;23.734;2022-09-09T10:58:51;95450.06;;;35.66;37.93
9521;BME280;4798;41.574;23.734;2022-09-09T11:01:23;95448.91;;;36.16;36.04
9521;BME280;4798;41.574;23.734;2022-09-09T11:03:55;95436.13;;;35.90;36.90
9521;BME280;4798;41.574;23.734;2022-09-09T11:06:29;95443.16;;;36.87;39.01
9521;BME280;4798;41.574;23.734;2022-09-09T11:09:02;95383.19;;;35.95;37.72
9521;BME280;4798;41.574;23.734;2022-09-09T11:11:37;95445.16;;;35.74;37.03
9521;BME280;4798;41.574;23.734;2022-09-09T11:14:11;95439.50;;;36.46;35.39
9521;BME280;4798;41.574;23.734;2022-09-09T11:16:48;95430.19;;;36.23;37.97
9521;BME280;4798;41.574;23.734;2022-09-09T11:19:24;95432.16;;;35.91;38.30
9521;BME280;4798;41.574;23.734;2022-09-09T11:21:55;95427.78;;;36.09;36.21
9521;BME280;4798;41.574;23.734;2022-09-09T11:24:28;95423.97;;;36.68;36.85
9521;BME280;4798;41.574;23.734;2022-09-09T11:27:05;95412.75;;;36.43;35.62
9521;BME280;4798;41.574;23.734;2022-09-09T11:30:04;95413.28;;;36.99;35.30
9521;BME280;4798;41.574;23.734;2022-09-09T11:33:03;95418.16;;;37.07;34.10
9521;BME280;4798;41.574;23.734;2022-09-09T11:35:48;95416.72;;;37.03;34.12
9521;BME280;4798;41.574;23.734;2022-09-09T11:38:26;95405.66;;;37.44;33.67
9521;BME280;4798;41.574;23.734;2022-09-09T11:40:58;95397.19;;;37.35;34.00
9521;BME280;4798;41.574;23.734;2022-09-09T11:43:30;95406.19;;;37.39;33.60
9521;BME280;4798;41.574;23.734;2022-09-09T11:46:02;95395.03;;;37.42;33.32
9521;BME280;4798;41.574;23.734;2022-09-09T11:48:35;95350.91;;;37.89;32.82
9521;BME280;4798;41.574;23.734;2022-09-09T11:51:06;95389.41;;;37.59;33.45
9521;BME280;4798;41.574;23.734;2022-09-09T11:53:50;95381.56;;;37.82;33.23
9521;BME280;4798;41.574;23.734;2022-09-09T11:56:27;95379.47;;;38.80;33.04
9521;BME280;4798;41.574;23.734;2022-09-09T11:59:00;95389.97;;;38.04;32.07
9521;BME280;4798;41.574;23.734;2022-09-09T12:01:35;95374.97;;;38.27;31.77
9521;BME280;4798;41.574;23.734;2022-09-09T12:04:32;95377.25;;;38.28;31.96
9521;BME280;4798;41.574;23.734;2022-09-09T12:07:03;95375.13;;;37.85;33.55
9521;BME280;4798;41.574;23.734;2022-09-09T12:09:43;95362.63;;;37.68;32.77
9521;BME280;4798;41.574;23.734;2022-09-09T12:12:31;95362.94;;;37.58;33.71
9521;BME280;4798;41.574;23.734;2022-09-09T12:15:23;95356.56;;;37.07;34.17
9521;BME280;4798;41.574;23.734;2022-09-09T12:17:54;95355.09;;;35.48;37.60
9521;BME280;4798;41.574;23.734;2022-09-09T12:20:33;95350.53;;;36.09;37.27
9521;BME280;4798;41.574;23.734;2022-09-09T12:23:20;95360.81;;;36.54;36.44
9521;BME280;4798;41.574;23.734;2022-09-09T12:25:58;95350.50;;;37.12;35.18
9521;BME280;4798;41.574;23.734;2022-09-09T12:28:41;95351.53;;;37.81;33.95
9521;BME280;4798;41.574;23.734;2022-09-09T12:31:17;95354.41;;;38.15;33.98
9521;BME280;4798;41.574;23.734;2022-09-09T12:33:49;95350.75;;;38.05;33.60
9521;BME280;4798;41.574;23.734;2022-09-09T12:36:22;95338.19;;;38.60;33.93
9521;BME280;4798;41.574;23.734;2022-09-09T12:38:53;95338.19;;;38.60;32.28
9521;BME280;4798;41.574;23.734;2022-09-09T12:41:23;95342.47;;;37.80;33.64
9521;BME280;4798;41.574;23.734;2022-09-09T12:44:03;95343.38;;;37.90;33.99
9521;BME280;4798;41.574;23.734;2022-09-09T12:46:36;95335.97;;;37.49;34.63
9521;BME280;4798;41.574;23.734;2022-09-09T12:49:26;95342.59;;;37.77;34.78
9521;BME280;4798;41.574;23.734;2022-09-09T12:51:55;95321.78;;;36.80;37.63
9521;BME280;4798;41.574;23.734;2022-09-09T12:54:25;95317.78;;;37.10;36.93
9521;BME280;4798;41.574;23.734;2022-09-09T12:56:54;95320.47;;;36.85;35.31
9521;BME280;4798;41.574;23.734;2022-09-09T12:59:25;95313.59;;;36.77;35.99
9521;BME280;4798;41.574;23.734;2022-09-09T13:01:58;95314.81;;;35.86;37.31
9521;BME280;4798;41.574;23.734;2022-09-09T13:04:27;95305.94;;;35.95;37.82
9521;BME280;4798;41.574;23.734;2022-09-09T13:07:05;95299.13;;;34.79;40.56
9521;BME280;4798;41.574;23.734;2022-09-09T13:09:42;95228.19;;;34.08;41.25
9521;BME280;4798;41.574;23.734;2022-09-09T13:12:14;95291.31;;;34.78;42.50
9521;BME280;4798;41.574;23.734;2022-09-09T13:14:45;95289.06;;;34.73;41.43
9521;BME280;4798;41.574;23.734;2022-09-09T13:17:19;95291.38;;;35.46;40.76
9521;BME280;4798;41.574;23.734;2022-09-09T13:19:49;95291.59;;;36.61;36.41
9521;BME280;4798;41.574;23.734;2022-09-09T13:22:29;95280.13;;;36.46;36.11
9521;BME280;4798;41.574;23.734;2022-09-09T13:25:02;95277.72;;;36.19;37.23
9521;BME280;4798;41.574;23.734;2022-09-09T13:27:33;95276.09;;;36.06;37.55
9521;BME280;4798;41.574;23.734;2022-09-09T13:32:46;95282.44;;;35.06;40.39
9521;BME280;4798;41.574;23.734;2022-09-09T13:35:23;95282.22;;;35.17;38.87
9521;BME280;4798;41.574;23.734;2022-09-09T13:37:51;95282.06;;;34.68;39.02
9521;BME280;4798;41.574;23.734;2022-09-09T13:40:21;95222.03;;;35.31;38.00
9521;BME280;4798;41.574;23.734;2022-09-09T13:42:52;95276.28;;;35.50;37.27